KAZE

Details ICAO KAZE
Name HAZLEHURST
Region United States
Timezone America/New_York (UTC-5.0)
Plans Departing 1
Arriving 0
Stats Elevation 255 ft / 78 m (AMSL)
Location 31.884663° -82.647380°
Runways 1
Magnetic Variation 6.045° W
Sunrise 2017-12-14 12:24:19 UTC / 2017-12-14 07:24:19 Local
Sunset 2017-12-14 22:29:14 UTC / 2017-12-14 17:29:14 Local
Advertisement - Login to hide

Runways

ID Width Length Bearing (true) Bearing (mag) Surface Threshold Offset Overrun Length
14 75 ft / 23 m 4,513 ft / 1,375 m 140.74° 146.79° Asphalt 0 ft / 0 m 0 ft / 0 m
32 75 ft / 23 m 4,513 ft / 1,375 m 320.74° 326.79° Asphalt 0 ft / 0 m 0 ft / 0 m

Map

Weather


0- 5 10 15 20 25 30 35+ Temperature / ° C

Clouds and Precipitation
Forecast for 2017-12-15 00:00 UTC. Updated an hour ago

Ground ~20,000 ft ~40,000 ft Winds

METAR

KAZE 142215Z AUTO 00000KT 10SM CLR 15/M05 A2996 RMK AO2 T01481049

TAF

Not found

Frequencies

Unicom 122.80 MHz CTAF/UNICOM
Warning: Do not use this data for real-world aviation or navigation. No guarantee of current accuracy is given.